Boca Grande, FL (33921)

1:44 AM EST on December 08, 2016 (GMT -0500)
Useppa Island | | Change Station

Elev 5 ft 26.66 °N, 82.21 °W | Updated 15 seconds ago

Clear
Clear
69.4 °F
Feels Like 69.4 °F
N
7.8
Wind Variable Wind from NNE
Gusts 10.1 mph

Today
High -- | Low -- °F
--% Chance of Precip.
Yesterday
High -- | Low -- °F
Precip. -- in
Pressure 30.11 in
Visibility 10.0 miles
Clouds Clear
Dew Point 64 °F
Humidity 84%
Rainfall 0.00 in
Snow Depth Not available.
7:05 AM 5:36 PM
First Quarter, 60% visible
METAR KPGD 080553Z 03004KT 10SM CLR 17/16 A3011 RMK AO2 SLP196 T01670161 10211 20167 58004
Pressure 30.11 in
Visibility 10.0 miles
Clouds Clear
Dew Point 64 °F
Humidity 84%
Rainfall 0.00 in
Snow Depth Not available.
7:05 AM 5:36 PM
First Quarter, 60% visible
METAR KPGD 080553Z 03004KT 10SM CLR 17/16 A3011 RMK AO2 SLP196 T01670161 10211 20167 58004

10-Day Weather Forecast

Almanac

Astronomy

Dec. 08, 2016 Rise Set
Actual Time
Civil Twilight
Nautical Twilight
Astronomical Twilight
Moon
Length of Visible Light
Length of Day
Tomorrow will be .
, % of the Moon is Illuminated

Today's Extremes

State Highs State Lows

Community

WunderPhotos

Upload Photos

1,956,259 photos uploaded!

WunderBlog® & News

Nearby

Air Quality

  Air Quality AQ Index Pollutant
Not available.

Snow Depth

Station Depth Elevation

Earthquake Activity

City Distance Mag. Time & Date
Minimum magnitude displayed is 2.5.

Coastal Water Temperatures

Place Temperature

Stations

Nearby Weather Stations

Station Location Temp. Windchill Dew Point Humidity Wind Precip. Elev Updated Type
                   

Watches & Warnings

There are currently no watches in effect.